sensor_id;sensor_type;location;lat;lon;timestamp;pressure;altitude;pressure_sealevel;temperature;humidity
50087;BME280;35967;50.718;7.050;2022-11-04T00:00:15;99498.47;;;12.20;83.81
50087;BME280;35967;50.718;7.050;2022-11-04T00:10:20;99525.56;;;12.29;84.60
50087;BME280;35967;50.718;7.050;2022-11-04T00:20:43;99526.31;;;12.31;83.54
50087;BME280;35967;50.718;7.050;2022-11-04T00:31:06;99537.50;;;12.12;83.31
50087;BME280;35967;50.718;7.050;2022-11-04T00:41:23;99570.06;;;12.15;83.34
50087;BME280;35967;50.718;7.050;2022-11-04T00:51:32;99570.00;;;12.17;83.23
50087;BME280;35967;50.718;7.050;2022-11-04T01:01:35;99580.34;;;11.97;83.30
50087;BME280;35967;50.718;7.050;2022-11-04T01:11:39;99603.53;;;11.97;82.46
50087;BME280;35967;50.718;7.050;2022-11-04T01:21:42;99618.13;;;11.78;81.90
50087;BME280;35967;50.718;7.050;2022-11-04T01:31:46;99628.31;;;11.81;82.47
50087;BME280;35967;50.718;7.050;2022-11-04T01:41:49;99639.91;;;11.71;81.81
50087;BME280;35967;50.718;7.050;2022-11-04T01:51:57;99643.84;;;11.59;80.15
50087;BME280;35967;50.718;7.050;2022-11-04T02:02:01;99643.78;;;11.81;79.00
50087;BME280;35967;50.718;7.050;2022-11-04T02:12:06;99639.13;;;11.68;78.16
50087;BME280;35967;50.718;7.050;2022-11-04T02:22:41;99643.16;;;11.55;78.77
50087;BME280;35967;50.718;7.050;2022-11-04T02:33:04;99632.19;;;11.29;78.71
50087;BME280;35967;50.718;7.050;2022-11-04T02:43:18;99639.34;;;11.23;78.47
50087;BME280;35967;50.718;7.050;2022-11-04T02:53:29;99629.56;;;11.31;77.83
50087;BME280;35967;50.718;7.050;2022-11-04T03:03:38;99631.38;;;11.29;77.04
50087;BME280;35967;50.718;7.050;2022-11-04T03:13:47;99613.19;;;11.32;76.73
50087;BME280;35967;50.718;7.050;2022-11-04T03:23:52;99600.47;;;11.29;77.02
50087;BME280;35967;50.718;7.050;2022-11-04T03:33:57;99611.41;;;11.34;76.49
50087;BME280;35967;50.718;7.050;2022-11-04T03:44:00;99625.38;;;11.08;76.35
50087;BME280;35967;50.718;7.050;2022-11-04T03:54:05;99613.47;;;10.83;77.32
50087;BME280;35967;50.718;7.050;2022-11-04T04:04:14;99589.94;;;10.92;77.18
50087;BME280;35967;50.718;7.050;2022-11-04T04:14:23;99588.56;;;10.83;77.86
50087;BME280;35967;50.718;7.050;2022-11-04T04:24:43;99588.19;;;10.72;77.85
50087;BME280;35967;50.718;7.050;2022-11-04T04:35:08;99614.59;;;10.98;77.33
50087;BME280;35967;50.718;7.050;2022-11-04T04:45:31;99620.00;;;10.92;77.70
50087;BME280;35967;50.718;7.050;2022-11-04T04:55:36;99599.47;;;10.90;78.15
50087;BME280;35967;50.718;7.050;2022-11-04T05:05:42;99612.16;;;10.72;78.22
50087;BME280;35967;50.718;7.050;2022-11-04T05:15:47;99607.44;;;10.62;78.69
50087;BME280;35967;50.718;7.050;2022-11-04T05:25:50;99588.53;;;10.63;78.83
50087;BME280;35967;50.718;7.050;2022-11-04T05:35:54;99585.78;;;10.67;78.66
50087;BME280;35967;50.718;7.050;2022-11-04T05:46:06;99593.97;;;10.55;77.83
50087;BME280;35967;50.718;7.050;2022-11-04T05:56:11;99613.84;;;10.27;78.45
50087;BME280;35967;50.718;7.050;2022-11-04T06:06:14;99620.19;;;10.19;79.08
50087;BME280;35967;50.718;7.050;2022-11-04T06:16:18;99639.16;;;10.16;78.99
50087;BME280;35967;50.718;7.050;2022-11-04T06:26:23;99648.16;;;10.04;78.85
50087;BME280;35967;50.718;7.050;2022-11-04T06:36:30;99666.63;;;9.90;78.81
50087;BME280;35967;50.718;7.050;2022-11-04T06:46:36;99687.78;;;9.99;79.72
50087;BME280;35967;50.718;7.050;2022-11-04T06:56:40;99677.00;;;10.13;81.07
50087;BME280;35967;50.718;7.050;2022-11-04T07:06:44;99689.16;;;10.07;82.14
50087;BME280;35967;50.718;7.050;2022-11-04T07:16:49;99709.88;;;10.28;81.96
50087;BME280;35967;50.718;7.050;2022-11-04T07:26:53;99738.25;;;10.25;82.36
50087;BME280;35967;50.718;7.050;2022-11-04T07:36:58;99744.50;;;10.43;83.15
50087;BME280;35967;50.718;7.050;2022-11-04T07:47:01;99739.41;;;10.65;82.16
50087;BME280;35967;50.718;7.050;2022-11-04T07:57:05;99741.19;;;10.63;82.05
50087;BME280;35967;50.718;7.050;2022-11-04T08:07:09;99735.72;;;10.72;82.74
50087;BME280;35967;50.718;7.050;2022-11-04T09:16:02;99774.34;;;11.61;86.74
50087;BME280;35967;50.718;7.050;2022-11-04T09:26:28;99766.34;;;11.67;84.54
50087;BME280;35967;50.718;7.050;2022-11-04T10:00:10;99775.94;;;12.07;83.16
50087;BME280;35967;50.718;7.050;2022-11-04T10:10:22;99777.34;;;12.35;82.43
50087;BME280;35967;50.718;7.050;2022-11-04T10:20:38;99784.81;;;12.41;81.11
50087;BME280;35967;50.718;7.050;2022-11-04T10:30:46;99796.25;;;12.54;80.08
50087;BME280;35967;50.718;7.050;2022-11-04T10:40:53;99804.66;;;12.39;78.95
50087;BME280;35967;50.718;7.050;2022-11-04T10:50:58;99806.56;;;12.54;79.47
50087;BME280;35967;50.718;7.050;2022-11-04T11:01:22;99815.81;;;12.60;78.25
50087;BME280;35967;50.718;7.050;2022-11-04T11:11:37;99817.97;;;12.69;78.43
50087;BME280;35967;50.718;7.050;2022-11-04T11:21:44;99833.41;;;12.90;77.88
50087;BME280;35967;50.718;7.050;2022-11-04T11:31:49;99828.13;;;12.93;79.47
50087;BME280;35967;50.718;7.050;2022-11-04T11:41:59;99822.63;;;12.82;78.09
50087;BME280;35967;50.718;7.050;2022-11-04T11:52:22;99824.34;;;12.81;79.44
50087;BME280;35967;50.718;7.050;2022-11-04T12:02:35;99831.59;;;12.73;79.17
50087;BME280;35967;50.718;7.050;2022-11-04T12:12:51;99843.09;;;12.66;79.44
50087;BME280;35967;50.718;7.050;2022-11-04T12:23:04;99848.47;;;12.61;80.50
50087;BME280;35967;50.718;7.050;2022-11-04T12:33:18;99855.00;;;12.89;82.34
50087;BME280;35967;50.718;7.050;2022-11-04T12:43:32;99861.56;;;12.77;80.73
50087;BME280;35967;50.718;7.050;2022-11-04T12:53:52;99867.00;;;12.90;81.34
50087;BME280;35967;50.718;7.050;2022-11-04T13:04:04;99868.47;;;12.96;80.53
50087;BME280;35967;50.718;7.050;2022-11-04T13:14:14;99882.25;;;12.75;79.91
50087;BME280;35967;50.718;7.050;2022-11-04T13:24:27;99890.78;;;12.77;79.96
50087;BME280;35967;50.718;7.050;2022-11-04T13:34:37;99900.00;;;12.83;81.88
50087;BME280;35967;50.718;7.050;2022-11-04T13:44:45;99908.41;;;13.26;79.28
50087;BME280;35967;50.718;7.050;2022-11-04T13:54:52;99924.31;;;12.98;80.10
50087;BME280;35967;50.718;7.050;2022-11-04T14:16:00;99957.19;;;12.33;89.06
50087;BME280;35967;50.718;7.050;2022-11-04T14:26:05;99971.75;;;12.13;88.80
50087;BME280;35967;50.718;7.050;2022-11-04T14:36:22;99977.47;;;12.21;88.47
50087;BME280;35967;50.718;7.050;2022-11-04T14:46:29;100000.59;;;12.01;87.59
50087;BME280;35967;50.718;7.050;2022-11-04T14:56:35;100002.78;;;12.54;90.54
50087;BME280;35967;50.718;7.050;2022-11-04T15:06:38;100005.94;;;12.40;87.83
50087;BME280;35967;50.718;7.050;2022-11-04T15:16:57;100034.88;;;12.26;87.79
50087;BME280;35967;50.718;7.050;2022-11-04T15:27:02;100045.25;;;12.25;87.51
50087;BME280;35967;50.718;7.050;2022-11-04T15:37:10;100066.56;;;12.30;88.03
50087;BME280;35967;50.718;7.050;2022-11-04T15:47:24;100086.72;;;12.20;89.36
50087;BME280;35967;50.718;7.050;2022-11-04T15:57:32;100097.59;;;12.28;89.31
50087;BME280;35967;50.718;7.050;2022-11-04T16:07:37;100108.78;;;12.05;89.92
50087;BME280;35967;50.718;7.050;2022-11-04T16:17:44;100133.19;;;11.95;90.79
50087;BME280;35967;50.718;7.050;2022-11-04T16:27:47;100140.91;;;11.95;91.35
50087;BME280;35967;50.718;7.050;2022-11-04T16:37:52;100160.75;;;12.18;90.45
50087;BME280;35967;50.718;7.050;2022-11-04T16:47:56;100174.06;;;12.07;90.82
50087;BME280;35967;50.718;7.050;2022-11-04T16:58:02;100180.75;;;12.13;90.33
50087;BME280;35967;50.718;7.050;2022-11-04T17:08:08;100181.50;;;12.15;90.58
50087;BME280;35967;50.718;7.050;2022-11-04T17:18:14;100202.28;;;12.12;90.60
50087;BME280;35967;50.718;7.050;2022-11-04T17:28:17;100209.13;;;12.13;90.67
50087;BME280;35967;50.718;7.050;2022-11-04T17:38:22;100233.97;;;12.15;90.44
50087;BME280;35967;50.718;7.050;2022-11-04T17:48:25;100252.03;;;12.15;90.73
50087;BME280;35967;50.718;7.050;2022-11-04T17:58:30;100250.44;;;12.11;91.21
50087;BME280;35967;50.718;7.050;2022-11-04T18:08:33;100271.19;;;12.08;91.63
50087;BME280;35967;50.718;7.050;2022-11-04T18:18:37;100283.94;;;11.86;92.34
50087;BME280;35967;50.718;7.050;2022-11-04T18:28:40;100276.72;;;11.96;92.53
50087;BME280;35967;50.718;7.050;2022-11-04T18:38:45;100296.41;;;12.00;92.02
50087;BME280;35967;50.718;7.050;2022-11-04T18:48:49;100298.03;;;12.03;91.53
50087;BME280;35967;50.718;7.050;2022-11-04T18:58:53;100310.13;;;11.74;91.98
50087;BME280;35967;50.718;7.050;2022-11-04T19:08:58;100313.94;;;11.62;92.04
50087;BME280;35967;50.718;7.050;2022-11-04T19:19:15;100330.81;;;11.72;91.79
50087;BME280;35967;50.718;7.050;2022-11-04T19:29:18;100343.66;;;11.74;91.27
50087;BME280;35967;50.718;7.050;2022-11-04T19:39:23;100356.25;;;11.83;90.65
50087;BME280;35967;50.718;7.050;2022-11-04T19:49:25;100367.25;;;11.61;90.45
50087;BME280;35967;50.718;7.050;2022-11-04T19:59:33;100388.41;;;11.73;90.71
50087;BME280;35967;50.718;7.050;2022-11-04T20:09:38;100396.13;;;11.73;90.70
50087;BME280;35967;50.718;7.050;2022-11-04T20:19:42;100405.25;;;11.55;91.78
50087;BME280;35967;50.718;7.050;2022-11-04T20:29:45;100413.00;;;11.55;91.48
50087;BME280;35967;50.718;7.050;2022-11-04T20:39:50;100430.16;;;11.56;92.00
50087;BME280;35967;50.718;7.050;2022-11-04T20:49:53;100449.44;;;12.01;91.63
50087;BME280;35967;50.718;7.050;2022-11-04T20:59:58;100468.03;;;11.82;91.82
50087;BME280;35967;50.718;7.050;2022-11-04T21:10:00;100475.00;;;11.80;91.65
50087;BME280;35967;50.718;7.050;2022-11-04T21:20:06;100502.75;;;11.72;92.11
50087;BME280;35967;50.718;7.050;2022-11-04T21:30:10;100513.31;;;11.62;92.20
50087;BME280;35967;50.718;7.050;2022-11-04T21:40:15;100525.19;;;11.68;91.24
50087;BME280;35967;50.718;7.050;2022-11-04T21:50:20;100530.50;;;11.62;91.84
50087;BME280;35967;50.718;7.050;2022-11-04T22:00:24;100548.53;;;11.63;91.41
50087;BME280;35967;50.718;7.050;2022-11-04T22:10:27;100555.19;;;11.41;92.31
50087;BME280;35967;50.718;7.050;2022-11-04T22:20:33;100547.00;;;11.56;91.66
50087;BME280;35967;50.718;7.050;2022-11-04T22:30:37;100564.44;;;11.46;92.34
50087;BME280;35967;50.718;7.050;2022-11-04T22:40:41;100573.72;;;11.54;92.12
50087;BME280;35967;50.718;7.050;2022-11-04T22:50:45;100577.56;;;11.39;92.46
50087;BME280;35967;50.718;7.050;2022-11-04T23:00:54;100578.84;;;11.22;93.05
50087;BME280;35967;50.718;7.050;2022-11-04T23:10:59;100602.44;;;11.07;91.27
50087;BME280;35967;50.718;7.050;2022-11-04T23:21:21;100619.97;;;10.92;90.93
50087;BME280;35967;50.718;7.050;2022-11-04T23:31:42;100629.66;;;11.17;89.68
50087;BME280;35967;50.718;7.050;2022-11-04T23:41:46;100632.28;;;11.14;89.38
50087;BME280;35967;50.718;7.050;2022-11-04T23:52:07;100634.72;;;11.20;89.40
